createdAt,value
2023-02-19T00:00:55.595Z,995.90
2023-02-19T00:01:55.553Z,995.84
2023-02-19T00:02:55.427Z,995.87
2023-02-19T00:03:55.394Z,995.87
2023-02-19T00:04:55.356Z,995.83
2023-02-19T00:05:55.272Z,995.80
2023-02-19T00:06:55.195Z,995.77
2023-02-19T00:07:55.164Z,995.78
2023-02-19T00:08:55.062Z,995.78
2023-02-19T00:09:55.015Z,995.78
2023-02-19T00:10:54.976Z,995.79
2023-02-19T00:12:15.850Z,995.80
2023-02-19T00:12:54.803Z,995.77
2023-02-19T00:13:54.769Z,995.78
2023-02-19T00:14:54.698Z,995.79
2023-02-19T00:15:54.618Z,995.87
2023-02-19T00:16:54.586Z,995.87
2023-02-19T00:17:54.522Z,995.90
2023-02-19T00:18:54.455Z,995.88
2023-02-19T00:19:54.355Z,995.89
2023-02-19T00:20:54.318Z,995.84
2023-02-19T00:21:54.280Z,995.89
2023-02-19T00:22:54.176Z,995.85
2023-02-19T00:23:54.121Z,995.84
2023-02-19T00:24:54.068Z,995.80
2023-02-19T00:25:54.005Z,995.80
2023-02-19T00:26:53.949Z,995.73
2023-02-19T00:27:53.884Z,995.68
2023-02-19T00:28:53.791Z,995.72
2023-02-19T00:31:33.441Z,995.65
2023-02-19T00:32:33.715Z,995.61
2023-02-19T00:33:33.593Z,995.52
2023-02-19T00:34:33.556Z,995.49
2023-02-19T00:35:33.513Z,995.47
2023-02-19T00:36:33.431Z,995.47
2023-02-19T00:37:33.379Z,995.46
2023-02-19T00:38:33.304Z,995.47
2023-02-19T00:39:33.241Z,995.47
2023-02-19T00:40:33.203Z,995.44
2023-02-19T00:41:33.371Z,995.41
2023-02-19T00:42:33.052Z,995.37
2023-02-19T00:43:32.987Z,995.30
2023-02-19T00:44:32.944Z,995.33
2023-02-19T00:45:32.893Z,995.31
2023-02-19T00:46:32.789Z,995.29
2023-02-19T00:47:32.738Z,995.34
2023-02-19T00:48:32.680Z,995.34
2023-02-19T00:49:32.615Z,995.33
2023-02-19T00:50:32.578Z,995.33
2023-02-19T00:51:32.466Z,995.30
2023-02-19T00:52:32.414Z,995.30
2023-02-19T00:53:32.388Z,995.33
2023-02-19T00:54:32.273Z,995.36
2023-02-19T00:55:32.234Z,995.31
2023-02-19T00:56:32.172Z,995.33
2023-02-19T00:57:32.082Z,995.34
2023-02-19T00:58:32.047Z,995.31
2023-02-19T00:59:32.264Z,995.28
2023-02-19T01:00:31.926Z,995.27
2023-02-19T01:01:31.899Z,995.24
2023-02-19T01:02:31.766Z,995.28
2023-02-19T01:03:31.704Z,995.30
2023-02-19T01:04:31.701Z,995.26
2023-02-19T01:05:31.655Z,995.27
2023-02-19T01:06:31.514Z,995.24
2023-02-19T01:07:31.479Z,995.25
2023-02-19T01:08:31.403Z,995.25
2023-02-19T01:09:31.350Z,995.27
2023-02-19T01:10:31.288Z,995.21
2023-02-19T01:11:31.241Z,995.20
2023-02-19T01:12:31.166Z,995.22
2023-02-19T01:13:31.135Z,995.24
2023-02-19T01:14:31.013Z,995.23
2023-02-19T01:15:30.982Z,995.22
2023-02-19T01:16:30.971Z,995.21
2023-02-19T01:17:30.842Z,995.17
2023-02-19T01:18:30.780Z,995.12
2023-02-19T01:19:30.654Z,995.10
2023-02-19T01:20:30.611Z,995.18
2023-02-19T01:21:30.548Z,995.14
2023-02-19T01:22:30.533Z,995.16
2023-02-19T01:23:51.408Z,995.15
2023-02-19T01:24:30.378Z,995.10
2023-02-19T01:25:30.302Z,995.05
2023-02-19T01:26:30.315Z,995.02
2023-02-19T01:27:30.210Z,995.03
2023-02-19T01:28:30.089Z,995.02
2023-02-19T01:29:30.063Z,995.03
2023-02-19T01:30:30.000Z,995.08
2023-02-19T01:31:30.139Z,995.01
2023-02-19T01:32:29.902Z,994.96
2023-02-19T01:33:29.837Z,994.99
2023-02-19T01:34:29.772Z,994.99
2023-02-19T01:35:29.733Z,994.97
2023-02-19T01:36:29.676Z,995.00
2023-02-19T01:37:29.563Z,994.91
2023-02-19T01:38:29.474Z,994.86
2023-02-19T01:39:29.409Z,994.80
2023-02-19T01:40:29.378Z,994.79
2023-02-19T01:42:38.536Z,994.83
2023-02-19T01:43:39.535Z,994.84
2023-02-19T01:44:39.439Z,994.87
2023-02-19T01:45:39.411Z,994.78
2023-02-19T01:46:39.354Z,994.82
2023-02-19T01:47:39.243Z,994.82
2023-02-19T01:48:39.198Z,994.80
2023-02-19T01:49:39.151Z,994.83
2023-02-19T01:50:39.068Z,994.87
2023-02-19T01:51:38.995Z,994.83
2023-02-19T01:52:38.941Z,994.82
2023-02-19T01:53:38.898Z,994.79
2023-02-19T01:54:38.827Z,994.79
2023-02-19T01:55:38.761Z,994.81
2023-02-19T01:56:38.706Z,994.77
2023-02-19T01:57:38.601Z,994.80
2023-02-19T01:58:38.566Z,994.80
2023-02-19T01:59:59.484Z,994.83
2023-02-19T02:00:38.441Z,994.89
2023-02-19T02:01:38.428Z,994.84
2023-02-19T02:02:38.339Z,994.81
2023-02-19T02:03:38.284Z,994.79
2023-02-19T02:04:38.216Z,994.76
2023-02-19T02:05:38.184Z,994.81
2023-02-19T02:06:38.092Z,994.77
2023-02-19T02:07:38.008Z,994.73
2023-02-19T02:08:37.965Z,994.76
2023-02-19T02:09:37.909Z,994.75
2023-02-19T02:10:37.815Z,994.80
2023-02-19T02:11:37.797Z,994.80
2023-02-19T02:12:37.692Z,994.77
2023-02-19T02:13:37.628Z,994.75
2023-02-19T02:14:37.557Z,994.75
2023-02-19T02:15:37.508Z,994.74
2023-02-19T02:16:37.454Z,994.73
2023-02-19T02:17:37.397Z,994.74
2023-02-19T02:18:37.319Z,994.74
2023-02-19T02:19:37.228Z,994.73
2023-02-19T02:20:37.230Z,994.72
2023-02-19T02:21:37.143Z,994.72
2023-02-19T02:22:37.072Z,994.71
2023-02-19T02:23:37.026Z,994.71
2023-02-19T02:24:36.975Z,994.67
2023-02-19T02:25:36.881Z,994.64
2023-02-19T02:26:36.815Z,994.68
2023-02-19T02:27:36.796Z,994.65
2023-02-19T02:28:36.715Z,994.67
2023-02-19T02:29:36.668Z,994.63
2023-02-19T02:30:36.537Z,994.64
2023-02-19T02:31:36.639Z,994.71
2023-02-19T02:32:36.440Z,994.68
2023-02-19T02:33:36.383Z,994.62
2023-02-19T02:34:36.311Z,994.58
2023-02-19T02:35:36.270Z,994.57
2023-02-19T02:36:36.211Z,994.52
2023-02-19T02:37:36.132Z,994.47
2023-02-19T02:38:36.126Z,994.49
2023-02-19T02:39:36.000Z,994.52
2023-02-19T02:40:35.973Z,994.51
2023-02-19T02:41:35.878Z,994.49
2023-02-19T02:42:35.785Z,994.49
2023-02-19T02:43:35.727Z,994.52
2023-02-19T02:44:35.687Z,994.48
2023-02-19T02:45:35.680Z,994.48
2023-02-19T02:46:35.569Z,994.51
2023-02-19T02:47:35.547Z,994.46
2023-02-19T02:48:35.440Z,994.51
2023-02-19T02:49:35.376Z,994.48
2023-02-19T02:50:35.285Z,994.47
2023-02-19T02:51:35.225Z,994.47
2023-02-19T02:52:35.211Z,994.46
2023-02-19T02:53:35.128Z,994.45
2023-02-19T02:54:35.063Z,994.46
2023-02-19T02:55:34.994Z,994.47
2023-02-19T02:56:34.935Z,994.46
2023-02-19T02:57:34.879Z,994.46
2023-02-19T02:58:34.814Z,994.42
2023-02-19T02:59:34.765Z,994.46
2023-02-19T03:00:34.657Z,994.46
2023-02-19T03:01:34.615Z,994.47
2023-02-19T03:02:34.593Z,994.43
2023-02-19T03:03:34.506Z,994.46
2023-02-19T03:04:34.442Z,994.47
2023-02-19T03:05:34.361Z,994.47
2023-02-19T03:06:34.342Z,994.44
2023-02-19T03:07:34.247Z,994.40
2023-02-19T03:08:34.187Z,994.38
2023-02-19T03:09:34.149Z,994.44
2023-02-19T03:10:34.037Z,994.37
2023-02-19T03:11:34.043Z,994.32
2023-02-19T03:12:33.905Z,994.32
2023-02-19T03:13:33.870Z,994.35
2023-02-19T03:14:33.808Z,994.34
2023-02-19T03:15:33.782Z,994.32
2023-02-19T03:16:33.733Z,994.35
2023-02-19T03:17:33.646Z,994.30
2023-02-19T03:18:33.586Z,994.34
2023-02-19T03:19:33.494Z,994.37
2023-02-19T03:20:33.433Z,994.31
2023-02-19T03:21:33.348Z,994.25
2023-02-19T03:22:33.312Z,994.33
2023-02-19T03:23:33.292Z,994.31
2023-02-19T03:24:33.213Z,994.32
2023-02-19T03:25:33.146Z,994.31
2023-02-19T03:26:33.080Z,994.38
2023-02-19T03:27:33.020Z,994.35
2023-02-19T03:28:32.904Z,994.33
2023-02-19T03:29:32.916Z,994.33
2023-02-19T03:30:32.851Z,994.31
2023-02-19T03:31:32.862Z,994.31
2023-02-19T03:32:32.705Z,994.25
2023-02-19T03:33:32.628Z,994.25
2023-02-19T03:34:32.554Z,994.24
2023-02-19T03:35:32.552Z,994.22
2023-02-19T03:36:32.386Z,994.18
2023-02-19T03:37:32.369Z,994.23
2023-02-19T03:38:32.330Z,994.19
2023-02-19T03:39:32.266Z,994.21
2023-02-19T03:40:32.202Z,994.24
2023-02-19T03:41:32.141Z,994.30
2023-02-19T03:42:32.087Z,994.32
2023-02-19T03:43:31.995Z,994.36
2023-02-19T03:44:31.927Z,994.41
2023-02-19T03:45:32.028Z,994.41
2023-02-19T03:46:31.787Z,994.40
2023-02-19T03:47:31.823Z,994.40
2023-02-19T03:48:31.681Z,994.42
2023-02-19T03:49:31.619Z,994.47
2023-02-19T03:50:31.483Z,994.43
2023-02-19T03:51:31.466Z,994.44
2023-02-19T03:52:31.426Z,994.47
2023-02-19T03:53:31.587Z,994.55
2023-02-19T03:54:31.223Z,994.54
2023-02-19T03:55:31.215Z,994.65
2023-02-19T03:56:31.157Z,994.67
2023-02-19T03:57:31.074Z,994.59
2023-02-19T03:58:30.975Z,994.61
2023-02-19T03:59:30.951Z,994.71
2023-02-19T04:00:30.956Z,994.77
2023-02-19T04:01:30.849Z,994.73
2023-02-19T04:02:30.828Z,994.75
2023-02-19T04:03:30.744Z,994.80
2023-02-19T04:04:30.763Z,994.76
2023-02-19T04:06:39.856Z,994.85
2023-02-19T04:07:40.805Z,994.84
2023-02-19T04:08:40.715Z,994.71
2023-02-19T04:09:40.651Z,994.79
2023-02-19T04:10:40.625Z,994.68
2023-02-19T04:11:40.585Z,994.70
2023-02-19T04:12:40.490Z,994.68
2023-02-19T04:13:40.359Z,994.67
2023-02-19T04:14:40.313Z,994.77
2023-02-19T04:15:40.210Z,994.72
2023-02-19T04:16:40.260Z,994.75
2023-02-19T04:17:40.182Z,994.78
2023-02-19T04:18:40.068Z,994.77
2023-02-19T04:19:40.025Z,994.72
2023-02-19T04:20:40.004Z,994.76
2023-02-19T04:21:39.881Z,994.86
2023-02-19T04:22:39.848Z,994.78
2023-02-19T04:23:39.792Z,994.80
2023-02-19T04:24:39.694Z,994.81
2023-02-19T04:25:39.630Z,994.83
2023-02-19T04:26:39.563Z,994.83
2023-02-19T04:27:39.539Z,994.78
2023-02-19T04:28:39.491Z,994.88
2023-02-19T04:29:39.453Z,994.90
2023-02-19T04:30:39.521Z,994.83
2023-02-19T04:31:39.411Z,994.83
2023-02-19T04:32:39.183Z,994.77
2023-02-19T04:33:39.150Z,994.83
2023-02-19T04:34:39.085Z,994.83
2023-02-19T04:35:39.029Z,994.87
2023-02-19T04:36:38.959Z,995.01
2023-02-19T04:37:38.876Z,994.93
2023-02-19T04:38:38.835Z,994.95
2023-02-19T04:39:38.802Z,995.16
2023-02-19T04:40:38.714Z,994.99
2023-02-19T04:42:47.913Z,995.08
2023-02-19T04:43:48.781Z,995.13
2023-02-19T04:44:48.741Z,995.10
2023-02-19T04:45:48.692Z,995.05
2023-02-19T04:46:48.600Z,995.05
2023-02-19T04:47:48.559Z,995.05
2023-02-19T04:48:48.496Z,995.07
2023-02-19T04:49:48.432Z,995.12
2023-02-19T04:50:48.343Z,995.09
2023-02-19T04:51:48.331Z,995.10
2023-02-19T04:52:48.247Z,995.19
2023-02-19T04:53:48.217Z,995.08
2023-02-19T04:54:48.150Z,995.08
2023-02-19T04:55:48.059Z,995.12
2023-02-19T04:56:47.997Z,995.08
2023-02-19T04:57:47.957Z,995.15
2023-02-19T04:58:47.896Z,995.18
2023-02-19T04:59:47.849Z,995.13
2023-02-19T05:00:47.747Z,995.10
2023-02-19T05:01:47.812Z,995.09
2023-02-19T05:02:47.619Z,995.16
2023-02-19T05:03:47.530Z,995.14
2023-02-19T05:04:47.495Z,995.20
2023-02-19T05:05:47.474Z,995.15
2023-02-19T05:06:47.372Z,995.08
2023-02-19T05:07:47.313Z,995.11
2023-02-19T05:08:47.226Z,995.19
2023-02-19T05:09:47.187Z,995.19
2023-02-19T05:10:47.120Z,995.23
2023-02-19T05:11:47.073Z,995.13
2023-02-19T05:12:46.970Z,995.20
2023-02-19T05:13:46.984Z,995.23
2023-02-19T05:14:46.899Z,995.21
2023-02-19T05:15:46.774Z,995.22
2023-02-19T05:16:46.715Z,995.23
2023-02-19T05:17:46.673Z,995.34
2023-02-19T05:18:46.686Z,995.31
2023-02-19T05:19:46.582Z,995.45
2023-02-19T05:20:46.490Z,995.34
2023-02-19T05:21:46.430Z,995.45
2023-02-19T05:22:46.401Z,995.49
2023-02-19T05:23:46.306Z,995.41
2023-02-19T05:24:46.247Z,995.37
2023-02-19T05:26:07.144Z,995.45
2023-02-19T05:26:46.116Z,995.51
2023-02-19T05:27:46.083Z,995.48
2023-02-19T05:28:46.020Z,995.45
2023-02-19T05:29:45.952Z,995.51
2023-02-19T05:30:45.897Z,995.54
2023-02-19T05:31:45.961Z,995.50
2023-02-19T05:32:45.742Z,995.63
2023-02-19T05:33:45.661Z,995.58
2023-02-19T05:34:45.615Z,995.64
2023-02-19T05:35:45.567Z,995.69
2023-02-19T05:36:45.466Z,995.72
2023-02-19T05:37:45.460Z,995.71
2023-02-19T05:38:45.371Z,995.65
2023-02-19T05:39:45.302Z,995.74
2023-02-19T05:40:45.213Z,995.68
2023-02-19T05:41:45.197Z,995.71
2023-02-19T05:42:45.090Z,995.76
2023-02-19T05:43:45.029Z,995.68
2023-02-19T05:44:44.972Z,995.73
2023-02-19T05:45:44.960Z,995.79
2023-02-19T05:46:44.896Z,995.85
2023-02-19T05:47:44.801Z,995.89
2023-02-19T05:48:44.764Z,995.85
2023-02-19T05:49:44.673Z,995.85
2023-02-19T05:50:44.616Z,995.82
2023-02-19T05:51:44.610Z,995.78
2023-02-19T05:52:44.465Z,995.83
2023-02-19T05:55:24.430Z,995.83
2023-02-19T05:56:25.336Z,995.89
2023-02-19T05:57:25.270Z,995.86
2023-02-19T05:58:25.209Z,995.86
2023-02-19T05:59:25.135Z,995.85
2023-02-19T06:00:25.114Z,995.86
2023-02-19T06:01:25.052Z,995.87
2023-02-19T06:02:24.952Z,995.87
2023-02-19T06:03:24.922Z,995.92
2023-02-19T06:04:24.837Z,995.87
2023-02-19T06:05:24.787Z,995.89
2023-02-19T06:06:24.795Z,995.95
2023-02-19T06:07:24.600Z,995.96
2023-02-19T06:08:24.554Z,995.98
2023-02-19T06:09:24.438Z,995.95
2023-02-19T06:10:24.486Z,995.96
2023-02-19T06:11:45.332Z,996.00
2023-02-19T06:12:24.252Z,996.10
2023-02-19T06:13:24.233Z,996.14
2023-02-19T06:14:24.189Z,996.13
2023-02-19T06:15:24.083Z,996.19
2023-02-19T06:16:24.163Z,996.17
2023-02-19T06:17:23.978Z,996.16
2023-02-19T06:18:23.873Z,996.16
2023-02-19T06:19:23.833Z,996.21
2023-02-19T06:20:26.033Z,996.23
2023-02-19T06:21:23.712Z,996.22
2023-02-19T06:22:23.679Z,996.24
2023-02-19T06:23:23.602Z,996.18
2023-02-19T06:24:23.550Z,996.19
2023-02-19T06:25:23.430Z,996.19
2023-02-19T06:26:23.380Z,996.27
2023-02-19T06:27:23.340Z,996.26
2023-02-19T06:28:23.243Z,996.28
2023-02-19T06:30:32.456Z,996.40
2023-02-19T06:31:33.438Z,996.43
2023-02-19T06:32:33.340Z,996.28
2023-02-19T06:33:33.184Z,996.43
2023-02-19T06:34:33.120Z,996.42
2023-02-19T06:35:33.066Z,996.39
2023-02-19T06:36:32.994Z,996.44
2023-02-19T06:37:32.960Z,996.41
2023-02-19T06:38:32.844Z,996.42
2023-02-19T06:39:32.796Z,996.43
2023-02-19T06:40:32.755Z,996.41
2023-02-19T06:41:32.689Z,996.48
2023-02-19T06:42:32.627Z,996.46
2023-02-19T06:43:32.581Z,996.52
2023-02-19T06:44:32.510Z,996.57
2023-02-19T06:45:32.405Z,996.59
2023-02-19T06:46:32.354Z,996.59
2023-02-19T06:49:11.177Z,996.57
2023-02-19T06:50:12.111Z,996.58
2023-02-19T06:51:12.321Z,996.57
2023-02-19T06:52:11.978Z,996.54
2023-02-19T06:53:11.919Z,996.60
2023-02-19T06:54:11.901Z,996.58
2023-02-19T06:55:11.830Z,996.63
2023-02-19T06:56:11.709Z,996.70
2023-02-19T06:57:11.639Z,996.71
2023-02-19T06:58:11.602Z,996.70
2023-02-19T06:59:11.574Z,996.73
2023-02-19T07:00:11.531Z,996.81
2023-02-19T07:01:11.787Z,996.75
2023-02-19T07:02:11.406Z,996.88
2023-02-19T07:03:11.319Z,996.82
2023-02-19T07:04:11.241Z,996.89
2023-02-19T07:05:11.164Z,996.85
2023-02-19T07:07:20.253Z,996.87
2023-02-19T07:08:21.237Z,996.95
2023-02-19T07:09:21.114Z,996.94
2023-02-19T07:10:21.072Z,996.88
2023-02-19T07:11:21.013Z,996.91
2023-02-19T07:12:20.958Z,996.93
2023-02-19T07:13:20.884Z,996.95
2023-02-19T07:14:20.825Z,996.96
2023-02-19T07:15:20.759Z,997.04
2023-02-19T07:16:20.769Z,996.99
2023-02-19T07:17:20.695Z,996.99
2023-02-19T07:18:20.609Z,997.01
2023-02-19T07:19:20.531Z,997.04
2023-02-19T07:20:20.415Z,997.02
2023-02-19T07:21:20.378Z,997.07
2023-02-19T07:22:20.289Z,997.11
2023-02-19T07:23:20.256Z,997.10
2023-02-19T07:24:41.179Z,997.08
2023-02-19T07:25:20.101Z,997.15
2023-02-19T07:26:20.061Z,997.14
2023-02-19T07:27:19.977Z,997.20
2023-02-19T07:28:19.942Z,997.14
2023-02-19T07:29:19.891Z,997.28
2023-02-19T07:30:20.121Z,997.27
2023-02-19T07:31:19.971Z,997.29
2023-02-19T07:32:19.692Z,997.26
2023-02-19T07:33:19.623Z,997.30
2023-02-19T07:34:19.557Z,997.32
2023-02-19T07:35:19.476Z,997.37
2023-02-19T07:36:19.452Z,997.37
2023-02-19T07:37:19.371Z,997.37
2023-02-19T07:38:19.340Z,997.40
2023-02-19T07:39:19.250Z,997.44
2023-02-19T07:40:19.183Z,997.48
2023-02-19T07:41:19.111Z,997.47
2023-02-19T07:42:19.096Z,997.51
2023-02-19T07:43:19.000Z,997.52
2023-02-19T07:44:18.908Z,997.56
2023-02-19T07:45:18.897Z,997.53
2023-02-19T07:46:18.809Z,997.55
2023-02-19T07:47:18.779Z,997.55
2023-02-19T07:48:18.668Z,997.59
2023-02-19T07:49:18.648Z,997.68
2023-02-19T07:50:18.577Z,997.64
2023-02-19T07:51:18.484Z,997.64
2023-02-19T07:52:18.444Z,997.60
2023-02-19T07:53:18.384Z,997.62
2023-02-19T07:54:18.324Z,997.76
2023-02-19T07:55:18.274Z,997.74
2023-02-19T07:56:18.179Z,997.78
2023-02-19T07:57:18.145Z,997.80
2023-02-19T07:58:18.086Z,997.78
2023-02-19T07:59:17.994Z,997.83
2023-02-19T08:03:16.691Z,997.99
2023-02-19T08:04:17.544Z,998.00
2023-02-19T08:05:17.500Z,998.01
2023-02-19T08:06:17.428Z,997.95
2023-02-19T08:07:17.360Z,998.04
2023-02-19T08:08:17.362Z,998.09
2023-02-19T08:09:17.226Z,998.05
2023-02-19T08:10:17.169Z,998.11
2023-02-19T08:11:17.102Z,998.07
2023-02-19T08:12:17.077Z,998.06
2023-02-19T08:13:16.972Z,998.06
2023-02-19T08:14:16.939Z,998.14
2023-02-19T08:15:16.849Z,998.16
2023-02-19T08:16:24.098Z,998.08
2023-02-19T08:17:16.769Z,998.12
2023-02-19T08:18:16.738Z,998.11
2023-02-19T08:19:16.600Z,998.18
2023-02-19T08:20:16.575Z,998.17
2023-02-19T08:21:16.468Z,998.16
2023-02-19T08:22:16.389Z,998.19
2023-02-19T08:23:16.349Z,998.22
2023-02-19T08:24:16.329Z,998.23
2023-02-19T08:25:16.227Z,998.21
2023-02-19T08:26:16.133Z,998.26
2023-02-19T08:27:16.073Z,998.28
2023-02-19T08:28:16.042Z,998.28
2023-02-19T08:29:16.002Z,998.24
2023-02-19T08:30:15.946Z,998.29
2023-02-19T08:31:16.134Z,998.36
2023-02-19T08:32:15.859Z,998.31
2023-02-19T08:33:15.696Z,998.33
2023-02-19T08:34:15.659Z,998.37
2023-02-19T08:35:15.573Z,998.40
2023-02-19T08:36:36.516Z,998.41
2023-02-19T08:37:15.447Z,998.43
2023-02-19T08:38:15.410Z,998.38
2023-02-19T08:39:15.346Z,998.39
2023-02-19T08:40:15.310Z,998.39
2023-02-19T08:41:15.340Z,998.41
2023-02-19T08:42:15.151Z,998.41
2023-02-19T08:43:15.125Z,998.42
2023-02-19T08:44:15.016Z,998.45
2023-02-19T08:45:14.998Z,998.44
2023-02-19T08:46:14.968Z,998.45
2023-02-19T08:47:14.852Z,998.42
2023-02-19T08:48:14.784Z,998.42
2023-02-19T08:49:14.727Z,998.41
2023-02-19T08:50:14.668Z,998.39
2023-02-19T08:51:14.936Z,998.42
2023-02-19T08:52:14.534Z,998.43
2023-02-19T08:53:14.444Z,998.46
2023-02-19T08:54:14.391Z,998.48
2023-02-19T08:55:14.352Z,998.45
2023-02-19T08:56:14.285Z,998.45
2023-02-19T08:57:14.194Z,998.48
2023-02-19T08:58:14.208Z,998.58
2023-02-19T08:59:14.133Z,998.59
2023-02-19T09:00:14.056Z,998.54
2023-02-19T09:01:14.397Z,998.53
2023-02-19T09:02:13.933Z,998.56
2023-02-19T09:03:13.822Z,998.66
2023-02-19T09:04:13.893Z,998.78
2023-02-19T09:05:13.719Z,998.92
2023-02-19T09:06:13.696Z,998.93
2023-02-19T09:07:13.617Z,998.99
2023-02-19T09:08:13.560Z,999.00
2023-02-19T09:09:13.468Z,999.08
2023-02-19T09:10:13.453Z,999.09
2023-02-19T09:11:13.810Z,999.08
2023-02-19T09:13:22.486Z,999.16
2023-02-19T09:14:23.416Z,999.17
2023-02-19T09:15:23.321Z,999.16
2023-02-19T09:16:23.267Z,999.23
2023-02-19T09:17:23.169Z,999.20
2023-02-19T09:18:23.175Z,999.20
2023-02-19T09:19:23.091Z,999.25
2023-02-19T09:20:23.067Z,999.25
2023-02-19T09:21:23.064Z,999.32
2023-02-19T09:22:22.920Z,999.26
2023-02-19T09:23:22.793Z,999.34
2023-02-19T09:24:22.785Z,999.30
2023-02-19T09:25:22.700Z,999.22
2023-02-19T09:26:22.637Z,999.29
2023-02-19T09:27:22.599Z,999.35
2023-02-19T09:28:22.552Z,999.40
2023-02-19T09:29:22.462Z,999.46
2023-02-19T09:30:43.409Z,999.50
2023-02-19T09:31:22.423Z,999.51
2023-02-19T09:32:22.269Z,999.51
2023-02-19T09:33:22.224Z,999.49
2023-02-19T09:34:22.134Z,999.56
2023-02-19T09:35:22.076Z,999.62
2023-02-19T09:36:22.048Z,999.67
2023-02-19T09:37:21.968Z,999.69
2023-02-19T09:38:21.860Z,999.73
2023-02-19T09:39:21.832Z,999.76
2023-02-19T09:40:21.941Z,999.80
2023-02-19T09:41:21.672Z,999.76
2023-02-19T09:42:21.674Z,999.84
2023-02-19T09:43:21.602Z,999.86
2023-02-19T09:44:21.521Z,999.87
2023-02-19T09:45:21.440Z,999.87
2023-02-19T09:46:21.433Z,999.86
2023-02-19T09:47:21.353Z,999.95
2023-02-19T09:48:21.250Z,999.97
2023-02-19T09:49:21.188Z,999.99
2023-02-19T09:50:21.208Z,1000.03
2023-02-19T09:51:21.102Z,1000.03
2023-02-19T09:52:21.134Z,1000.08
2023-02-19T09:53:20.947Z,1000.05
2023-02-19T09:54:20.892Z,1000.11
2023-02-19T09:55:20.844Z,1000.11
2023-02-19T09:56:20.789Z,1000.13
2023-02-19T09:57:20.698Z,1000.13
2023-02-19T09:58:20.616Z,1000.16
2023-02-19T09:59:20.629Z,1000.18
2023-02-19T10:00:20.564Z,1000.17
2023-02-19T10:01:20.440Z,1000.18
2023-02-19T10:02:20.412Z,1000.19
2023-02-19T10:03:20.348Z,1000.18
2023-02-19T10:04:20.259Z,1000.22
2023-02-19T10:05:20.309Z,1000.32
2023-02-19T10:07:29.351Z,1000.36
2023-02-19T10:08:30.279Z,1000.33
2023-02-19T10:09:30.179Z,1000.36
2023-02-19T10:10:30.118Z,1000.36
2023-02-19T10:11:30.080Z,1000.34
2023-02-19T10:12:29.999Z,1000.32
2023-02-19T10:13:29.902Z,1000.36
2023-02-19T10:14:29.889Z,1000.37
2023-02-19T10:15:29.779Z,1000.48
2023-02-19T10:16:29.740Z,1000.47
2023-02-19T10:17:29.704Z,1000.47
2023-02-19T10:18:29.644Z,1000.51
2023-02-19T10:19:29.553Z,1000.50
2023-02-19T10:20:29.491Z,1000.56
2023-02-19T10:21:29.464Z,1000.56
2023-02-19T10:22:29.358Z,1000.59
2023-02-19T10:23:29.330Z,1000.61
2023-02-19T10:25:38.395Z,1000.58
2023-02-19T10:26:39.347Z,1000.65
2023-02-19T10:27:39.288Z,1000.62
2023-02-19T10:28:39.212Z,1000.61
2023-02-19T10:29:39.187Z,1000.69
2023-02-19T10:30:39.104Z,1000.65
2023-02-19T10:31:39.182Z,1000.62
2023-02-19T10:32:38.999Z,1000.69
2023-02-19T10:33:38.942Z,1000.73
2023-02-19T10:34:38.853Z,1000.77
2023-02-19T10:35:38.790Z,1000.83
2023-02-19T10:36:38.769Z,1000.81
2023-02-19T10:37:38.682Z,1000.84
2023-02-19T10:38:38.605Z,1000.82
2023-02-19T10:39:38.508Z,1000.88
2023-02-19T10:40:38.472Z,1000.91
2023-02-19T10:41:38.407Z,1000.90
2023-02-19T10:42:59.301Z,1000.96
2023-02-19T10:43:38.257Z,1000.95
2023-02-19T10:44:38.223Z,1000.99
2023-02-19T10:45:38.164Z,1001.03
2023-02-19T10:46:38.157Z,1001.07
2023-02-19T10:47:38.015Z,1001.08
2023-02-19T10:48:38.026Z,1001.16
2023-02-19T10:49:37.912Z,1001.17
2023-02-19T10:50:37.842Z,1001.16
2023-02-19T10:51:37.781Z,1001.20
2023-02-19T10:52:37.696Z,1001.18
2023-02-19T10:53:37.631Z,1001.20
2023-02-19T10:54:37.614Z,1001.21
2023-02-19T10:55:38.198Z,1001.22
2023-02-19T10:56:37.454Z,1001.23
2023-02-19T10:57:37.382Z,1001.22
2023-02-19T10:58:37.356Z,1001.28
2023-02-19T10:59:37.288Z,1001.31
2023-02-19T11:00:37.204Z,1001.29
2023-02-19T11:01:37.171Z,1001.30
2023-02-19T11:02:37.164Z,1001.35
2023-02-19T11:03:37.037Z,1001.34
2023-02-19T11:04:37.009Z,1001.33
2023-02-19T11:05:36.941Z,1001.39
2023-02-19T11:06:36.879Z,1001.44
2023-02-19T11:07:36.781Z,1001.44
2023-02-19T11:08:36.749Z,1001.45
2023-02-19T11:09:36.630Z,1001.41
2023-02-19T11:10:36.598Z,1001.43
2023-02-19T11:11:36.573Z,1001.44
2023-02-19T11:12:36.748Z,1001.41
2023-02-19T11:13:36.409Z,1001.40
2023-02-19T11:14:36.323Z,1001.41
2023-02-19T11:15:36.325Z,1001.41
2023-02-19T11:16:36.227Z,1001.45
2023-02-19T11:17:36.135Z,1001.45
2023-02-19T11:18:57.402Z,1001.52
2023-02-19T11:19:36.065Z,1001.51
2023-02-19T11:20:35.968Z,1001.54
2023-02-19T11:21:35.890Z,1001.47
2023-02-19T11:22:35.880Z,1001.42
2023-02-19T11:23:35.817Z,1001.44
2023-02-19T11:24:35.758Z,1001.43
2023-02-19T11:25:35.635Z,1001.39
2023-02-19T11:26:35.596Z,1001.42
2023-02-19T11:27:35.540Z,1001.43
2023-02-19T11:28:35.451Z,1001.44
2023-02-19T11:29:35.407Z,1001.42
2023-02-19T11:30:36.381Z,1001.41
2023-02-19T11:31:35.410Z,1001.39
2023-02-19T11:32:35.225Z,1001.39
2023-02-19T11:33:35.132Z,1001.43
2023-02-19T11:34:35.119Z,1001.44
2023-02-19T11:35:35.031Z,1001.45
2023-02-19T11:36:35.032Z,1001.50
2023-02-19T11:37:34.886Z,1001.47
2023-02-19T11:38:34.853Z,1001.47
2023-02-19T11:39:34.788Z,1001.46
2023-02-19T11:40:34.749Z,1001.46
2023-02-19T11:41:34.664Z,1001.46
2023-02-19T11:42:34.660Z,1001.47
2023-02-19T11:43:34.516Z,1001.48
2023-02-19T11:44:34.513Z,1001.52
2023-02-19T11:45:34.392Z,1001.54
2023-02-19T11:46:34.395Z,1001.55
2023-02-19T11:47:34.312Z,1001.60
2023-02-19T11:48:34.221Z,1001.61
2023-02-19T11:49:34.169Z,1001.61
2023-02-19T11:50:34.083Z,1001.66
2023-02-19T11:51:34.041Z,1001.70
2023-02-19T11:52:33.960Z,1001.70
2023-02-19T11:53:33.913Z,1001.67
2023-02-19T11:54:33.888Z,1001.69
2023-02-19T11:55:33.818Z,1001.68
2023-02-19T11:56:33.746Z,1001.67
2023-02-19T11:57:33.693Z,1001.70
2023-02-19T11:58:33.604Z,1001.72
2023-02-19T11:59:33.517Z,1001.79
2023-02-19T12:00:33.461Z,1001.78
2023-02-19T12:01:33.392Z,1001.75
2023-02-19T12:02:33.356Z,1001.74
2023-02-19T12:03:33.290Z,1001.71
2023-02-19T12:04:33.226Z,1001.68
2023-02-19T12:05:33.162Z,1001.68
2023-02-19T12:06:33.141Z,1001.65
2023-02-19T12:07:33.044Z,1001.66
2023-02-19T12:08:32.972Z,1001.64
2023-02-19T12:09:32.936Z,1001.68
2023-02-19T12:10:32.858Z,1001.67
2023-02-19T12:11:32.789Z,1001.69
2023-02-19T12:14:11.587Z,1001.61
2023-02-19T12:15:12.538Z,1001.59
2023-02-19T12:16:12.481Z,1001.56
2023-02-19T12:17:12.421Z,1001.53
2023-02-19T12:18:12.397Z,1001.58
2023-02-19T12:19:12.282Z,1001.53
2023-02-19T12:20:12.226Z,1001.62
2023-02-19T12:21:12.457Z,1001.57
2023-02-19T12:22:12.095Z,1001.58
2023-02-19T12:23:12.032Z,1001.56
2023-02-19T12:24:11.969Z,1001.57
2023-02-19T12:25:11.917Z,1001.59
2023-02-19T12:26:12.276Z,1001.59
2023-02-19T12:27:11.786Z,1001.59
2023-02-19T12:28:11.719Z,1001.59
2023-02-19T12:29:11.660Z,1001.57
2023-02-19T12:30:11.654Z,1001.59
2023-02-19T12:31:33.143Z,1001.57
2023-02-19T12:32:11.558Z,1001.54
2023-02-19T12:33:11.414Z,1001.52
2023-02-19T12:34:11.346Z,1001.53
2023-02-19T12:35:11.309Z,1001.52
2023-02-19T12:36:11.547Z,1001.55
2023-02-19T12:37:11.153Z,1001.49
2023-02-19T12:38:11.082Z,1001.53
2023-02-19T12:39:11.034Z,1001.52
2023-02-19T12:40:10.971Z,1001.54
2023-02-19T12:41:10.887Z,1001.51
2023-02-19T12:42:10.822Z,1001.55